Time;durP1;ratioP1;P1;durP2;ratioP2;P2;SDS_P1;SDS_P2;PMS_P1;PMS_P2;Temp;Humidity;BMP_temperature;BMP_pressure;BME280_temperature;BME280_humidity;BME280_pressure;Samples;Min_cycle;Max_cycle;Signal;HPM_P1;HPM_P2
2022/05/03 00:01:13;;;;;;;;;36.75;29.00;;;;;;;;5053538;28;45510;-68
2022/05/03 00:03:44;;;;;;;;;41.75;35.75;;;;;;;;5054523;28;45374;-69
2022/05/03 00:06:12;;;;;;;;;37.00;34.00;;;;;;;;5055280;28;45500;-69
2022/05/03 00:08:41;;;;;;;;;45.75;36.50;;;;;;;;5053796;28;47198;-70
2022/05/03 00:11:15;;;;;;;;;40.50;35.25;;;;;;;;5053887;28;45328;-69
2022/05/03 00:13:46;;;;;;;;;39.25;34.50;;;;;;;;5053990;28;45424;-68
2022/05/03 00:16:15;;;;;;;;;44.00;38.25;;;;;;;;5053768;28;45552;-70
2022/05/03 00:18:44;;;;;;;;;39.75;36.25;;;;;;;;5053514;28;46792;-68
2022/05/03 00:21:10;;;;;;;;;42.00;35.25;;;;;;;;5055352;28;45344;-68
2022/05/03 00:23:36;;;;;;;;;47.25;36.00;;;;;;;;5054027;28;45301;-70
2022/05/03 00:26:01;;;;;;;;;36.00;32.50;;;;;;;;5040011;28;45638;-70
2022/05/03 00:28:26;;;;;;;;;38.25;33.50;;;;;;;;5053523;28;47236;-69
2022/05/03 00:30:52;;;;;;;;;38.75;32.00;;;;;;;;5052533;28;45593;-69
2022/05/03 00:33:18;;;;;;;;;42.25;35.50;;;;;;;;5055593;28;45611;-69
2022/05/03 00:35:44;;;;;;;;;44.00;36.00;;;;;;;;5052936;28;45474;-70
2022/05/03 00:38:09;;;;;;;;;42.25;37.25;;;;;;;;5053259;28;46858;-69
2022/05/03 00:40:38;;;;;;;;;42.00;35.50;;;;;;;;5053202;28;45364;-69
2022/05/03 00:43:23;;;;;;;;;43.50;38.25;;;;;;;;5053363;28;45411;-70
2022/05/03 00:45:51;;;;;;;;;43.50;35.75;;;;;;;;5037523;28;45269;-69
2022/05/03 00:48:19;;;;;;;;;44.00;35.25;;;;;;;;5055320;28;47194;-69
2022/05/03 00:50:49;;;;;;;;;40.75;35.50;;;;;;;;5052065;28;45494;-69
2022/05/03 00:53:17;;;;;;;;;39.75;34.75;;;;;;;;5051578;28;45517;-69
2022/05/03 00:55:42;;;;;;;;;37.25;33.00;;;;;;;;5052971;28;45394;-69
2022/05/03 00:58:26;;;;;;;;;42.50;33.50;;;;;;;;5053334;28;45370;-69
2022/05/03 01:01:09;;;;;;;;;36.25;30.25;;;;;;;;5037586;28;45400;-69
2022/05/03 01:03:42;;;;;;;;;36.50;32.75;;;;;;;;5052981;28;45339;-69
2022/05/03 01:06:26;;;;;;;;;48.50;38.75;;;;;;;;5055326;28;45526;-69
2022/05/03 01:08:51;;;;;;;;;41.75;34.50;;;;;;;;5053916;28;46433;-69
2022/05/03 01:11:29;;;;;;;;;41.25;33.50;;;;;;;;5052865;28;45407;-69
2022/05/03 01:14:06;;;;;;;;;43.50;36.00;;;;;;;;5052365;28;45628;-69
2022/05/03 01:16:34;;;;;;;;;38.50;33.50;;;;;;;;5052837;28;45352;-69
2022/05/03 01:19:02;;;;;;;;;45.50;37.50;;;;;;;;5052752;28;46380;-69
2022/05/03 01:21:45;;;;;;;;;42.25;35.50;;;;;;;;5054273;28;45281;-69
2022/05/03 01:24:23;;;;;;;;;34.75;31.00;;;;;;;;5054510;28;45348;-69
2022/05/03 01:26:48;;;;;;;;;32.50;32.25;;;;;;;;5052006;28;45247;-69
2022/05/03 01:29:22;;;;;;;;;40.00;34.25;;;;;;;;5052341;28;46271;-69
2022/05/03 01:31:53;;;;;;;;;35.50;29.50;;;;;;;;5052422;28;45399;-69
2022/05/03 01:34:19;;;;;;;;;33.25;26.50;;;;;;;;5052788;28;45353;-69
2022/05/03 01:36:51;;;;;;;;;41.25;36.75;;;;;;;;5053057;28;45415;-69
2022/05/03 01:39:25;;;;;;;;;35.25;31.50;;;;;;;;5049276;28;46256;-69
2022/05/03 01:42:00;;;;;;;;;35.50;28.50;;;;;;;;5053322;28;45364;-69
2022/05/03 01:44:39;;;;;;;;;37.25;32.75;;;;;;;;5056400;28;45578;-69
2022/05/03 01:47:18;;;;;;;;;40.50;32.25;;;;;;;;5056092;28;45462;-69
2022/05/03 01:53:01;;;;;;;;;45.50;36.00;;;;;;;;5055846;28;45500;-68
2022/05/03 01:55:40;;;;;;;;;39.25;34.50;;;;;;;;5056416;28;45430;-68
2022/05/03 01:58:24;;;;;;;;;34.50;32.00;;;;;;;;5042270;28;45369;-68
2022/05/03 02:01:01;;;;;;;;;42.50;36.00;;;;;;;;5040270;28;45436;-68
2022/05/03 02:03:30;;;;;;;;;40.25;35.25;;;;;;;;5054433;28;45222;-68
2022/05/03 02:05:55;;;;;;;;;39.50;34.25;;;;;;;;5057331;28;45309;-68
2022/05/03 02:08:21;;;;;;;;;41.25;33.75;;;;;;;;5055995;28;45545;-70
2022/05/03 02:10:57;;;;;;;;;40.00;35.00;;;;;;;;5055036;28;46205;-69
2022/05/03 02:16:39;;;;;;;;;38.50;34.00;;;;;;;;5044852;28;45495;-69
2022/05/03 02:19:18;;;;;;;;;34.00;31.00;;;;;;;;5055783;28;45518;-69
2022/05/03 02:21:49;;;;;;;;;36.50;32.00;;;;;;;;5055703;28;46384;-69
2022/05/03 02:24:22;;;;;;;;;39.75;33.50;;;;;;;;5057373;28;45505;-70
2022/05/03 02:26:55;;;;;;;;;44.75;35.25;;;;;;;;5055703;28;45471;-69
2022/05/03 02:29:25;;;;;;;;;33.75;32.75;;;;;;;;5055474;28;45570;-69
2022/05/03 02:31:57;;;;;;;;;36.50;33.25;;;;;;;;5055076;28;47574;-70
2022/05/03 02:34:35;;;;;;;;;36.00;32.75;;;;;;;;5054941;28;45460;-69
2022/05/03 02:37:03;;;;;;;;;34.75;31.25;;;;;;;;5055895;28;45389;-69
2022/05/03 02:39:31;;;;;;;;;37.50;32.75;;;;;;;;5056541;28;45436;-69
2022/05/03 02:42:01;;;;;;;;;34.00;31.00;;;;;;;;5056271;28;47109;-69
2022/05/03 02:44:28;;;;;;;;;33.50;29.50;;;;;;;;5055338;28;45304;-69
2022/05/03 02:46:53;;;;;;;;;37.00;34.25;;;;;;;;5055451;28;45288;-69
2022/05/03 02:49:20;;;;;;;;;37.75;29.00;;;;;;;;5055195;28;45468;-69
2022/05/03 02:51:59;;;;;;;;;38.50;35.25;;;;;;;;5054958;28;47189;-69
2022/05/03 02:54:33;;;;;;;;;41.75;34.00;;;;;;;;5052357;28;45545;-69
2022/05/03 02:57:31;;;;;;;;;42.75;39.00;;;;;;;;5054698;28;45402;-69
2022/05/03 03:02:50;;;;;;;;;41.50;33.00;;;;;;;;4981320;28;45449;-70
2022/05/03 03:05:19;;;;;;;;;47.75;39.00;;;;;;;;4981548;28;45444;-70
2022/05/03 03:07:51;;;;;;;;;39.75;35.75;;;;;;;;4985728;28;45406;-69
2022/05/03 03:10:20;;;;;;;;;47.75;39.25;;;;;;;;4989828;28;45424;-69
2022/05/03 03:13:02;;;;;;;;;43.00;37.50;;;;;;;;4974713;28;46163;-69
2022/05/03 03:15:28;;;;;;;;;33.00;29.25;;;;;;;;4987746;28;45294;-69
2022/05/03 03:17:54;;;;;;;;;41.25;36.00;;;;;;;;4987071;28;45468;-69
2022/05/03 03:20:23;;;;;;;;;52.00;41.25;;;;;;;;4985173;28;49392;-69
2022/05/03 03:22:48;;;;;;;;;41.25;36.75;;;;;;;;4985362;28;46356;-69
2022/05/03 03:25:15;;;;;;;;;46.75;38.75;;;;;;;;4969832;28;45583;-69
2022/05/03 03:27:42;;;;;;;;;33.25;30.25;;;;;;;;4990333;28;45553;-69
2022/05/03 03:30:08;;;;;;;;;42.75;33.00;;;;;;;;4989170;28;45479;-69
2022/05/03 03:32:35;;;;;;;;;40.50;33.50;;;;;;;;4978310;28;46349;-69
2022/05/03 03:35:01;;;;;;;;;37.50;33.00;;;;;;;;4995999;28;45444;-69
2022/05/03 03:37:33;;;;;;;;;46.50;38.75;;;;;;;;5053921;28;45493;-69
2022/05/03 03:39:58;;;;;;;;;37.00;33.00;;;;;;;;5053889;28;45415;-69
2022/05/03 03:42:26;;;;;;;;;48.25;38.50;;;;;;;;5055689;28;46969;-69
2022/05/03 03:44:52;;;;;;;;;44.00;37.00;;;;;;;;5054905;28;45446;-69
2022/05/03 03:47:17;;;;;;;;;44.75;33.75;;;;;;;;5054381;28;45437;-69
2022/05/03 03:49:43;;;;;;;;;45.75;36.50;;;;;;;;5053881;28;45378;-69
2022/05/03 03:52:09;;;;;;;;;38.50;33.00;;;;;;;;5053883;28;45515;-69
2022/05/03 03:54:35;;;;;;;;;43.75;34.50;;;;;;;;5054426;28;45333;-69
2022/05/03 03:57:01;;;;;;;;;45.25;36.00;;;;;;;;5054375;28;45362;-69
2022/05/03 03:59:30;;;;;;;;;46.50;37.00;;;;;;;;5053912;28;45521;-69
2022/05/03 04:01:56;;;;;;;;;44.00;36.50;;;;;;;;5054078;28;47043;-69
2022/05/03 04:04:25;;;;;;;;;42.75;35.25;;;;;;;;5052505;28;45522;-71
2022/05/03 04:06:50;;;;;;;;;42.00;35.50;;;;;;;;5037515;28;45383;-69
2022/05/03 04:09:16;;;;;;;;;47.00;36.75;;;;;;;;5055502;28;45392;-69
2022/05/03 04:11:45;;;;;;;;;45.00;35.00;;;;;;;;5052396;28;45483;-69
2022/05/03 04:14:13;;;;;;;;;48.00;37.25;;;;;;;;5053809;28;45486;-70
2022/05/03 04:16:39;;;;;;;;;42.25;35.75;;;;;;;;5053837;28;45384;-69
2022/05/03 04:19:04;;;;;;;;;48.00;36.75;;;;;;;;5053581;28;45399;-70
2022/05/03 04:21:30;;;;;;;;;47.50;39.50;;;;;;;;5046345;28;46122;-71
2022/05/03 04:23:55;;;;;;;;;47.50;38.50;;;;;;;;5054617;28;45566;-70
2022/05/03 04:26:20;;;;;;;;;50.50;39.00;;;;;;;;5052858;28;45403;-70
2022/05/03 04:28:45;;;;;;;;;45.75;36.75;;;;;;;;5053081;28;45507;-70
2022/05/03 04:31:10;;;;;;;;;44.25;38.00;;;;;;;;5053524;28;45943;-70
2022/05/03 04:33:36;;;;;;;;;45.25;39.00;;;;;;;;5053810;28;45375;-69
2022/05/03 04:36:01;;;;;;;;;48.75;39.50;;;;;;;;5057692;28;45451;-68
2022/05/03 04:38:26;;;;;;;;;45.00;35.50;;;;;;;;5053407;28;45567;-70
2022/05/03 04:41:01;;;;;;;;;50.50;39.50;;;;;;;;5053061;28;46771;-70
2022/05/03 04:43:27;;;;;;;;;48.50;38.50;;;;;;;;5055919;28;45435;-70
2022/05/03 04:45:52;;;;;;;;;49.25;38.00;;;;;;;;5056995;28;45400;-70
2022/05/03 04:48:17;;;;;;;;;53.25;42.50;;;;;;;;5055515;28;45476;-71
2022/05/03 04:50:43;;;;;;;;;49.75;40.50;;;;;;;;5051474;28;45311;-70
2022/05/03 04:53:08;;;;;;;;;43.50;37.50;;;;;;;;5052706;28;45454;-72
2022/05/03 04:55:37;;;;;;;;;44.25;34.75;;;;;;;;5052646;28;45451;-71
2022/05/03 04:58:02;;;;;;;;;42.50;35.25;;;;;;;;5052727;28;45462;-71
2022/05/03 05:00:27;;;;;;;;;45.25;38.75;;;;;;;;5053829;28;47127;-72
2022/05/03 05:02:52;;;;;;;;;45.25;38.25;;;;;;;;5053967;28;45410;-70
2022/05/03 05:05:18;;;;;;;;;39.25;31.00;;;;;;;;5052244;28;45351;-70
2022/05/03 05:07:43;;;;;;;;;50.00;40.25;;;;;;;;5052323;28;45513;-70
2022/05/03 05:10:23;;;;;;;;;41.75;36.25;;;;;;;;5052502;28;45445;-72
2022/05/03 05:12:49;;;;;;;;;50.75;38.00;;;;;;;;5036522;28;45195;-73
2022/05/03 05:15:14;;;;;;;;;47.50;36.25;;;;;;;;5054448;28;45489;-72
2022/05/03 05:17:39;;;;;;;;;46.00;37.75;;;;;;;;5055400;28;45258;-71
2022/05/03 05:20:05;;;;;;;;;43.50;35.50;;;;;;;;5055344;28;45810;-71
2022/05/03 05:22:30;;;;;;;;;47.75;39.00;;;;;;;;5055762;28;45539;-70
2022/05/03 05:24:55;;;;;;;;;50.50;39.75;;;;;;;;5056162;28;45522;-69
2022/05/03 05:27:20;;;;;;;;;50.00;38.75;;;;;;;;5057465;28;45585;-69
2022/05/03 05:29:46;;;;;;;;;51.75;41.25;;;;;;;;5056161;28;47146;-69
2022/05/03 05:32:11;;;;;;;;;50.50;39.75;;;;;;;;5053399;28;45258;-69
2022/05/03 05:34:36;;;;;;;;;47.50;38.75;;;;;;;;5072300;27;45434;-70
2022/05/03 05:37:02;;;;;;;;;52.50;41.50;;;;;;;;5068478;28;45421;-69
2022/05/03 05:39:27;;;;;;;;;44.75;36.25;;;;;;;;5059746;28;45525;-69
2022/05/03 05:41:53;;;;;;;;;47.25;39.75;;;;;;;;5059313;28;45532;-69
2022/05/03 05:44:18;;;;;;;;;52.75;38.75;;;;;;;;5055061;28;45381;-69
2022/05/03 05:46:44;;;;;;;;;47.00;38.75;;;;;;;;5057682;28;45638;-70
2022/05/03 05:49:09;;;;;;;;;44.25;36.50;;;;;;;;5059301;27;46405;-70
2022/05/03 05:51:34;;;;;;;;;44.75;36.25;;;;;;;;5052033;28;45441;-70
2022/05/03 05:53:59;;;;;;;;;48.25;39.50;;;;;;;;5072034;28;45388;-70
2022/05/03 05:56:25;;;;;;;;;47.00;38.25;;;;;;;;5062319;28;45480;-70
2022/05/03 05:58:50;;;;;;;;;46.50;38.50;;;;;;;;5059556;28;46142;-70
2022/05/03 06:01:15;;;;;;;;;49.75;40.50;;;;;;;;5054090;28;45458;-70
2022/05/03 06:03:42;;;;;;;;;47.75;38.25;;;;;;;;5054656;28;45559;-70
2022/05/03 06:06:07;;;;;;;;;46.00;35.50;;;;;;;;5059436;28;45517;-69
2022/05/03 06:08:33;;;;;;;;;56.25;45.25;;;;;;;;5034385;28;46998;-70
2022/05/03 06:10:59;;;;;;;;;50.50;41.00;;;;;;;;5053168;28;45434;-70
2022/05/03 06:13:25;;;;;;;;;49.75;39.00;;;;;;;;5053361;28;45441;-71
2022/05/03 06:15:50;;;;;;;;;48.50;39.75;;;;;;;;5052476;28;45225;-70
2022/05/03 06:18:16;;;;;;;;;42.25;36.00;;;;;;;;5054530;28;46942;-71
2022/05/03 06:20:41;;;;;;;;;50.25;39.50;;;;;;;;5051530;28;45406;-70
2022/05/03 06:23:06;;;;;;;;;47.75;39.00;;;;;;;;5051835;28;45301;-71
2022/05/03 06:25:31;;;;;;;;;52.00;39.25;;;;;;;;5053417;28;45437;-69
2022/05/03 06:27:57;;;;;;;;;44.00;36.50;;;;;;;;5050293;28;45827;-71
2022/05/03 06:30:22;;;;;;;;;48.50;39.50;;;;;;;;5035331;28;45423;-71
2022/05/03 06:32:47;;;;;;;;;49.50;38.75;;;;;;;;5051086;28;45339;-71
2022/05/03 06:35:13;;;;;;;;;46.00;37.50;;;;;;;;5051644;28;45555;-70
2022/05/03 06:37:39;;;;;;;;;47.00;38.75;;;;;;;;5053488;28;46292;-70
2022/05/03 06:40:08;;;;;;;;;53.00;40.75;;;;;;;;5053537;28;45794;-70
2022/05/03 06:42:35;;;;;;;;;49.50;40.00;;;;;;;;5050326;28;47998;-70
2022/05/03 06:45:00;;;;;;;;;49.50;38.50;;;;;;;;5051967;28;45471;-70
2022/05/03 06:47:27;;;;;;;;;41.00;35.25;;;;;;;;5052504;28;45805;-70
2022/05/03 06:49:52;;;;;;;;;44.25;37.00;;;;;;;;5052974;28;45433;-69
2022/05/03 06:52:18;;;;;;;;;49.75;40.00;;;;;;;;5061283;28;45771;-70
2022/05/03 06:54:43;;;;;;;;;47.75;39.75;;;;;;;;5053242;28;45393;-70
2022/05/03 06:57:08;;;;;;;;;46.25;39.25;;;;;;;;5053658;28;46197;-69
2022/05/03 06:59:34;;;;;;;;;47.75;38.25;;;;;;;;5049414;28;45513;-70
2022/05/03 07:01:59;;;;;;;;;44.50;37.50;;;;;;;;5051944;28;45483;-70
2022/05/03 07:04:25;;;;;;;;;46.50;38.50;;;;;;;;5052942;28;45557;-69
2022/05/03 07:06:50;;;;;;;;;43.50;36.25;;;;;;;;5051475;28;46889;-70
2022/05/03 07:09:16;;;;;;;;;51.25;41.75;;;;;;;;5053158;28;45433;-70
2022/05/03 07:11:42;;;;;;;;;46.50;39.25;;;;;;;;5051603;28;45446;-69
2022/05/03 07:14:07;;;;;;;;;46.75;39.25;;;;;;;;5049569;28;45590;-70
2022/05/03 07:16:32;;;;;;;;;49.00;38.00;;;;;;;;5036002;28;46539;-70
2022/05/03 07:24:25;;;;;;;;;45.25;37.25;;;;;;;;5046528;28;45301;-67
2022/05/03 07:26:51;;;;;;;;;41.75;36.50;;;;;;;;5047050;28;46533;-67
2022/05/03 07:29:16;;;;;;;;;43.75;34.75;;;;;;;;5035319;28;45595;-68
2022/05/03 07:31:41;;;;;;;;;49.00;41.25;;;;;;;;5049832;28;45430;-69
2022/05/03 07:34:08;;;;;;;;;42.00;36.00;;;;;;;;5051788;28;45393;-69
2022/05/03 07:36:33;;;;;;;;;40.75;35.00;;;;;;;;5036841;28;46148;-70
2022/05/03 07:38:59;;;;;;;;;47.00;40.25;;;;;;;;5049916;28;45298;-69
2022/05/03 07:41:24;;;;;;;;;38.25;33.50;;;;;;;;5024545;28;45497;-69
2022/05/03 07:43:50;;;;;;;;;46.25;37.50;;;;;;;;5040105;28;45318;-69
2022/05/03 07:46:15;;;;;;;;;47.75;36.75;;;;;;;;5034263;28;45715;-66
2022/05/03 07:48:41;;;;;;;;;45.00;37.25;;;;;;;;5050767;28;45479;-67
2022/05/03 07:51:06;;;;;;;;;44.25;35.00;;;;;;;;5052172;28;45498;-67
2022/05/03 07:53:31;;;;;;;;;44.00;33.00;;;;;;;;5050855;28;45567;-67
2022/05/03 07:55:57;;;;;;;;;39.25;32.25;;;;;;;;5050317;28;46372;-68
2022/05/03 07:58:23;;;;;;;;;46.75;36.75;;;;;;;;5048078;28;45643;-70
2022/05/03 08:00:48;;;;;;;;;50.25;38.25;;;;;;;;5040860;28;45412;-68
2022/05/03 08:03:14;;;;;;;;;42.25;35.75;;;;;;;;5042444;28;45544;-68
2022/05/03 08:05:39;;;;;;;;;40.75;34.50;;;;;;;;5045735;28;46131;-68
2022/05/03 08:08:05;;;;;;;;;47.50;35.75;;;;;;;;5043039;28;45400;-68
2022/05/03 08:10:30;;;;;;;;;46.50;36.75;;;;;;;;5042669;28;45435;-68
2022/05/03 08:12:55;;;;;;;;;38.00;32.25;;;;;;;;5041463;28;45459;-68
2022/05/03 08:15:21;;;;;;;;;40.75;33.25;;;;;;;;5038794;28;45513;-68
2022/05/03 08:17:46;;;;;;;;;45.00;35.50;;;;;;;;5041609;28;45495;-68
2022/05/03 08:20:13;;;;;;;;;41.25;35.00;;;;;;;;5047729;28;45490;-68
2022/05/03 08:22:38;;;;;;;;;49.00;38.50;;;;;;;;5047616;28;45848;-68
2022/05/03 08:25:03;;;;;;;;;39.00;35.00;;;;;;;;5045415;28;45920;-69
2022/05/03 08:27:30;;;;;;;;;41.25;32.75;;;;;;;;5042589;28;45467;-67
2022/05/03 08:29:55;;;;;;;;;40.50;32.75;;;;;;;;5038510;28;45256;-68
2022/05/03 08:32:21;;;;;;;;;41.00;34.75;;;;;;;;5047688;28;45387;-67
2022/05/03 08:34:46;;;;;;;;;46.50;37.00;;;;;;;;5046178;28;47114;-69
2022/05/03 08:42:39;;;;;;;;;36.25;32.00;;;;;;;;5035820;28;45282;-67
2022/05/03 08:45:04;;;;;;;;;40.75;29.50;;;;;;;;5052899;28;46108;-68
2022/05/03 08:47:31;;;;;;;;;27.50;26.00;;;;;;;;5049098;28;46362;-68
2022/05/03 08:50:01;;;;;;;;;31.50;28.25;;;;;;;;5049704;28;45443;-67
2022/05/03 08:52:28;;;;;;;;;32.75;27.50;;;;;;;;5049751;28;45485;-68
2022/05/03 08:54:55;;;;;;;;;35.75;30.00;;;;;;;;5049697;28;46516;-67
2022/05/03 08:57:20;;;;;;;;;33.50;28.00;;;;;;;;5036633;28;45353;-67
2022/05/03 08:59:48;;;;;;;;;23.75;20.25;;;;;;;;5052492;28;45285;-68
2022/05/03 09:02:13;;;;;;;;;33.75;31.25;;;;;;;;5047361;28;45322;-67
2022/05/03 09:04:38;;;;;;;;;29.00;26.50;;;;;;;;5019562;28;45931;-67
2022/05/03 09:07:17;;;;;;;;;27.50;25.25;;;;;;;;5049494;28;47064;-67
2022/05/03 09:09:42;;;;;;;;;27.75;24.75;;;;;;;;5049489;28;45398;-68
2022/05/03 09:12:20;;;;;;;;;35.00;28.00;;;;;;;;5050946;28;45327;-68
2022/05/03 09:14:46;;;;;;;;;32.25;26.25;;;;;;;;5046951;28;46238;-68
2022/05/03 09:17:11;;;;;;;;;32.75;27.75;;;;;;;;5049815;28;45634;-68
2022/05/03 09:19:37;;;;;;;;;30.25;27.75;;;;;;;;5037642;28;45497;-66
2022/05/03 09:25:01;;;;;;;;;32.25;27.00;;;;;;;;5050524;28;45410;-67
2022/05/03 09:27:26;;;;;;;;;30.00;25.75;;;;;;;;5050670;28;45338;-66
2022/05/03 09:29:58;;;;;;;;;28.75;25.00;;;;;;;;5049980;28;45339;-67
2022/05/03 09:32:40;;;;;;;;;30.00;26.25;;;;;;;;5049088;28;45607;-68
2022/05/03 09:35:06;;;;;;;;;25.25;25.00;;;;;;;;5042952;28;46944;-69
2022/05/03 09:37:38;;;;;;;;;28.75;23.25;;;;;;;;5037016;28;45541;-68
2022/05/03 09:40:05;;;;;;;;;24.75;21.75;;;;;;;;5048887;28;45604;-68
2022/05/03 09:42:30;;;;;;;;;21.50;19.25;;;;;;;;5047744;28;45376;-68
2022/05/03 09:44:57;;;;;;;;;26.00;24.00;;;;;;;;5050773;28;45579;-70
2022/05/03 09:47:33;;;;;;;;;30.25;26.50;;;;;;;;5048681;28;45475;-69
2022/05/03 09:49:58;;;;;;;;;26.00;22.25;;;;;;;;5051098;28;46108;-69
2022/05/03 09:52:28;;;;;;;;;22.00;20.50;;;;;;;;5047516;28;45377;-69
2022/05/03 09:54:59;;;;;;;;;26.00;24.25;;;;;;;;5044911;28;46406;-71
2022/05/03 09:57:26;;;;;;;;;24.00;21.25;;;;;;;;5037550;28;45443;-69
2022/05/03 09:59:52;;;;;;;;;24.00;19.00;;;;;;;;5025500;28;45488;-69
2022/05/03 10:02:18;;;;;;;;;25.75;19.50;;;;;;;;5041771;28;45525;-72
2022/05/03 10:04:47;;;;;;;;;24.75;20.50;;;;;;;;5045842;28;47232;-70
2022/05/03 10:07:12;;;;;;;;;22.00;19.50;;;;;;;;5053672;28;45476;-71
2022/05/03 10:09:39;;;;;;;;;20.75;20.75;;;;;;;;5053301;28;45478;-70
2022/05/03 10:12:05;;;;;;;;;28.50;23.75;;;;;;;;5054377;28;45564;-69
2022/05/03 10:14:30;;;;;;;;;24.00;22.25;;;;;;;;5046169;28;46383;-70
2022/05/03 10:22:26;;;;;;;;;23.50;20.25;;;;;;;;5036781;28;45646;-70
2022/05/03 10:24:52;;;;;;;;;22.00;21.75;;;;;;;;5043679;28;45523;-70
2022/05/03 10:27:21;;;;;;;;;15.50;15.50;;;;;;;;5048935;28;45542;-69
2022/05/03 10:30:06;;;;;;;;;18.75;18.75;;;;;;;;5047687;28;45526;-70
2022/05/03 10:32:32;;;;;;;;;17.75;15.50;;;;;;;;5039788;28;45447;-70
2022/05/03 10:34:59;;;;;;;;;18.25;17.25;;;;;;;;5035358;28;46078;-69
2022/05/03 10:37:34;;;;;;;;;15.25;15.25;;;;;;;;5042625;28;45455;-71
2022/05/03 10:40:01;;;;;;;;;21.50;20.25;;;;;;;;5061639;28;45412;-71
2022/05/03 10:42:27;;;;;;;;;20.25;17.25;;;;;;;;5052703;28;45410;-70
2022/05/03 10:44:52;;;;;;;;;15.25;14.25;;;;;;;;5040418;28;45317;-71
2022/05/03 10:47:19;;;;;;;;;17.75;17.25;;;;;;;;5044542;28;45517;-70
2022/05/03 10:50:02;;;;;;;;;21.00;17.75;;;;;;;;5048302;28;45521;-71
2022/05/03 10:52:28;;;;;;;;;19.75;16.50;;;;;;;;5033229;28;45520;-71
2022/05/03 10:55:09;;;;;;;;;19.00;17.00;;;;;;;;5042477;28;45580;-71
2022/05/03 10:57:52;;;;;;;;;18.25;17.25;;;;;;;;5049368;28;45435;-70
2022/05/03 11:00:38;;;;;;;;;17.00;16.25;;;;;;;;5051283;28;45585;-70
2022/05/03 11:03:18;;;;;;;;;17.00;16.25;;;;;;;;5053006;28;46834;-70
2022/05/03 11:05:44;;;;;;;;;20.00;17.50;;;;;;;;5046393;28;47432;-69
2022/05/03 11:08:16;;;;;;;;;17.50;16.00;;;;;;;;5048636;28;45508;-71
2022/05/03 11:10:42;;;;;;;;;17.00;15.00;;;;;;;;5039467;28;45491;-69
2022/05/03 11:13:27;;;;;;;;;16.25;15.75;;;;;;;;5047925;28;45385;-70
2022/05/03 11:16:11;;;;;;;;;16.50;14.00;;;;;;;;5048009;28;46091;-70
2022/05/03 11:18:36;;;;;;;;;16.25;15.25;;;;;;;;5047341;28;45550;-70
2022/05/03 11:21:12;;;;;;;;;15.75;14.75;;;;;;;;5053373;28;45511;-69
2022/05/03 11:23:46;;;;;;;;;11.50;11.00;;;;;;;;5049472;28;45387;-71
2022/05/03 11:26:11;;;;;;;;;13.50;11.00;;;;;;;;5050896;28;46824;-70
2022/05/03 11:28:36;;;;;;;;;13.50;13.50;;;;;;;;5035245;28;45463;-70
2022/05/03 11:31:01;;;;;;;;;17.75;14.00;;;;;;;;5052134;28;45429;-70
2022/05/03 11:33:26;;;;;;;;;11.75;10.25;;;;;;;;5052761;28;45363;-71
2022/05/03 11:35:54;;;;;;;;;12.00;9.50;;;;;;;;5051844;28;46452;-71
2022/05/03 11:38:19;;;;;;;;;17.75;15.75;;;;;;;;5048518;28;45669;-69
2022/05/03 11:40:45;;;;;;;;;10.25;8.50;;;;;;;;5048574;28;45324;-69
2022/05/03 11:43:12;;;;;;;;;6.25;6.25;;;;;;;;5048730;28;45455;-70
2022/05/03 11:45:38;;;;;;;;;16.50;11.25;;;;;;;;5051171;28;46313;-69
2022/05/03 11:48:03;;;;;;;;;13.00;11.25;;;;;;;;5058775;27;45434;-70
2022/05/03 11:56:01;;;;;;;;;11.75;9.00;;;;;;;;5057474;27;45387;-71
2022/05/03 11:58:30;;;;;;;;;8.50;8.00;;;;;;;;5068488;27;45435;-72
2022/05/03 12:00:55;;;;;;;;;10.75;10.75;;;;;;;;5051884;28;45459;-70
2022/05/03 12:03:21;;;;;;;;;9.50;8.75;;;;;;;;5053549;28;45498;-68
2022/05/03 12:06:03;;;;;;;;;8.00;8.00;;;;;;;;5050876;28;50165;-70
2022/05/03 12:08:29;;;;;;;;;11.00;10.00;;;;;;;;5048845;28;45443;-71
2022/05/03 12:10:56;;;;;;;;;12.00;10.00;;;;;;;;5051492;28;45611;-71
2022/05/03 12:13:22;;;;;;;;;11.75;9.75;;;;;;;;5047435;28;45578;-71
2022/05/03 12:15:49;;;;;;;;;7.50;7.00;;;;;;;;5050418;28;46095;-71
2022/05/03 12:18:18;;;;;;;;;9.50;9.50;;;;;;;;5072653;27;45507;-72
2022/05/03 12:20:48;;;;;;;;;7.00;5.75;;;;;;;;5054970;28;45311;-70
2022/05/03 12:23:21;;;;;;;;;8.00;7.75;;;;;;;;5053812;28;45546;-71
2022/05/03 12:25:50;;;;;;;;;9.50;8.50;;;;;;;;5048083;28;47150;-70
2022/05/03 12:28:16;;;;;;;;;9.25;7.75;;;;;;;;5051345;28;45371;-72
2022/05/03 12:30:42;;;;;;;;;8.50;7.50;;;;;;;;5051692;28;45504;-71
2022/05/03 12:33:08;;;;;;;;;8.75;6.00;;;;;;;;5056816;28;45502;-71
2022/05/03 12:35:38;;;;;;;;;12.00;9.50;;;;;;;;5053546;28;46344;-71
2022/05/03 12:38:08;;;;;;;;;7.25;7.00;;;;;;;;5051144;28;46145;-71
2022/05/03 12:40:42;;;;;;;;;8.00;6.25;;;;;;;;5053921;28;45486;-70
2022/05/03 12:43:17;;;;;;;;;6.25;6.25;;;;;;;;5055606;28;45515;-70
2022/05/03 12:45:54;;;;;;;;;6.75;5.00;;;;;;;;5062350;27;45488;-70
2022/05/03 12:48:19;;;;;;;;;8.25;7.25;;;;;;;;5064076;28;45380;-70
2022/05/03 12:50:44;;;;;;;;;8.00;6.75;;;;;;;;5054779;28;45280;-70
2022/05/03 12:53:12;;;;;;;;;6.25;6.25;;;;;;;;5053031;28;45386;-70
2022/05/03 12:55:37;;;;;;;;;9.50;6.75;;;;;;;;5058210;28;47205;-69
2022/05/03 13:00:46;;;;;;;;;10.00;8.25;;;;;;;;5049761;28;45470;-71
2022/05/03 13:03:12;;;;;;;;;8.00;8.00;;;;;;;;5051564;28;45586;-70
2022/05/03 13:05:37;;;;;;;;;6.00;6.00;;;;;;;;5036224;28;46985;-69
2022/05/03 13:08:02;;;;;;;;;6.00;6.00;;;;;;;;5051907;28;45527;-70
2022/05/03 13:10:28;;;;;;;;;6.00;6.00;;;;;;;;5053184;28;45446;-70
2022/05/03 13:12:53;;;;;;;;;8.25;7.00;;;;;;;;5041443;28;45579;-69
2022/05/03 13:15:19;;;;;;;;;10.50;6.50;;;;;;;;5051251;28;46630;-67
2022/05/03 13:17:44;;;;;;;;;7.75;5.50;;;;;;;;5052007;28;45530;-68
2022/05/03 13:20:09;;;;;;;;;5.75;5.75;;;;;;;;5051248;28;45483;-68
2022/05/03 13:22:35;;;;;;;;;9.00;9.00;;;;;;;;5052893;28;45315;-68
2022/05/03 13:25:00;;;;;;;;;8.75;8.75;;;;;;;;5050816;28;45730;-68
2022/05/03 13:27:25;;;;;;;;;9.75;9.25;;;;;;;;5050777;28;45595;-68
2022/05/03 13:29:50;;;;;;;;;10.25;10.25;;;;;;;;5051681;28;45432;-68
2022/05/03 13:32:16;;;;;;;;;8.75;7.25;;;;;;;;5050128;28;45529;-69
2022/05/03 13:34:41;;;;;;;;;6.75;6.75;;;;;;;;5053160;28;46277;-69
2022/05/03 13:42:34;;;;;;;;;8.50;7.75;;;;;;;;5053368;28;45470;-71
2022/05/03 13:44:59;;;;;;;;;9.00;7.75;;;;;;;;5055366;28;45506;-71
2022/05/03 13:47:25;;;;;;;;;11.00;10.25;;;;;;;;5055618;28;45263;-70
2022/05/03 13:49:50;;;;;;;;;8.75;7.75;;;;;;;;5057495;28;45409;-69
2022/05/03 13:52:16;;;;;;;;;7.25;6.50;;;;;;;;5050751;28;45627;-71
2022/05/03 13:54:41;;;;;;;;;10.25;10.00;;;;;;;;5055492;28;46454;-72
2022/05/03 13:57:06;;;;;;;;;5.25;5.25;;;;;;;;5056078;28;45403;-71
2022/05/03 13:59:33;;;;;;;;;10.00;9.00;;;;;;;;5061541;28;47860;-71
2022/05/03 14:01:59;;;;;;;;;6.00;6.00;;;;;;;;5055455;28;45503;-71
2022/05/03 14:04:24;;;;;;;;;7.25;7.00;;;;;;;;5054637;28;46001;-71
2022/05/03 14:06:49;;;;;;;;;6.25;5.25;;;;;;;;5056355;27;45229;-71
2022/05/03 14:09:14;;;;;;;;;8.50;7.50;;;;;;;;5056355;28;45310;-70
2022/05/03 14:11:40;;;;;;;;;8.25;7.50;;;;;;;;5060032;28;45231;-70
2022/05/03 14:14:05;;;;;;;;;9.75;8.75;;;;;;;;5059336;27;46249;-69
2022/05/03 14:16:30;;;;;;;;;6.75;5.75;;;;;;;;5058929;28;45454;-69
2022/05/03 14:18:57;;;;;;;;;9.25;9.25;;;;;;;;5054901;28;45400;-69
2022/05/03 14:21:22;;;;;;;;;6.50;6.50;;;;;;;;5060659;28;45436;-70
2022/05/03 14:23:47;;;;;;;;;9.50;9.00;;;;;;;;5066329;27;46146;-69
2022/05/03 14:26:12;;;;;;;;;4.75;4.75;;;;;;;;5061937;27;45372;-68
2022/05/03 14:28:38;;;;;;;;;8.00;8.00;;;;;;;;5057922;28;45866;-68
2022/05/03 14:31:03;;;;;;;;;7.50;6.75;;;;;;;;5065216;28;45435;-70
2022/05/03 14:33:28;;;;;;;;;5.50;5.50;;;;;;;;5056717;28;45655;-70
2022/05/03 14:35:54;;;;;;;;;6.25;6.25;;;;;;;;5056146;28;45423;-70
2022/05/03 14:38:19;;;;;;;;;8.00;8.00;;;;;;;;5055239;28;45464;-70
2022/05/03 14:40:44;;;;;;;;;5.75;5.75;;;;;;;;5052958;28;45605;-70
2022/05/03 14:43:10;;;;;;;;;8.25;8.25;;;;;;;;5055088;28;47943;-70
2022/05/03 14:45:35;;;;;;;;;4.00;4.00;;;;;;;;5054680;28;45549;-70
2022/05/03 14:48:01;;;;;;;;;7.00;5.75;;;;;;;;5056012;28;45644;-69
2022/05/03 14:50:28;;;;;;;;;6.75;5.25;;;;;;;;5054251;28;45577;-70
2022/05/03 14:52:56;;;;;;;;;7.00;7.00;;;;;;;;5053870;28;46204;-69
2022/05/03 14:55:23;;;;;;;;;5.25;5.25;;;;;;;;5054725;28;45455;-69
2022/05/03 15:03:16;;;;;;;;;9.00;7.75;;;;;;;;5056273;28;45429;-70
2022/05/03 15:05:42;;;;;;;;;6.00;6.00;;;;;;;;5053205;28;45432;-70
2022/05/03 15:08:08;;;;;;;;;4.75;4.75;;;;;;;;5054290;28;45377;-70
2022/05/03 15:10:33;;;;;;;;;7.25;7.25;;;;;;;;5053807;28;45457;-70
2022/05/03 15:13:04;;;;;;;;;6.00;5.00;;;;;;;;5051959;28;46393;-70